PWSweather.com
Personal Weather Stations
Station Observations
KRMIDAS
Braemar, Lake Zurich, IL 60047

BraemarLake Zurich, IL 60047

Lat: 42.178, Lon: -88.102

Elevation: 837

Station Type: Davis Vantage Pro 2

http://tomkeramidas.com/cumulus/index.htm

Latest ConditionsUpdated 11:30:01 PM CDT Friday, Oct 31, 2014
Currently Today's Max Today's Min Today's Average
Temperature 35.0°F1.7°C 36.5°F2.5°C 35.0°F1.7°C 35.6°F2.0°C
Dew Point 23.7°F-4.6°C 23.8°F-4.6°C 21.6°F-5.8°C 22.6°F-5.2°C
Winds 10.0 mph NNW16.1 kmh NNW 14.0 mph NNW22.5 kmh NNW - 10.6 mph 17.1 kmh
Wind Gusts 23.0 mph37.0 kmh 30.0 mph48.3 kmh - -
Humidity 63% 63% 56% 59%
Pressure 30.40 in1029.5 mb 30.40 in1029.5 mb 30.36 in1028.1 mb -
Hour Temp Dew Point Humidity Winds Wind Gusts Pressure Precip Precip Rate Daily Precip Total
06:45 PM 36.5°F2.5°C 23.1°F-4.9°C 58% 11.0 mph NNW17.7 kmh NNW 25.0 mph40.2 kmh 30.35 in1027.8 mb 0.00 in0.0 mm 0.00 in/hr0.0 mm/hr 0.00 in0.0 mm
06:30 PM 36.3°F2.4°C 22.9°F-5.1°C 58% 15.0 mph NNW24.1 kmh NNW 33.0 mph53.1 kmh 30.34 in1027.4 mb 0.00 in0.0 mm 0.00 in/hr0.0 mm/hr 0.00 in0.0 mm
06:15 PM 36.2°F2.3°C 22.8°F-5.1°C 58% 13.0 mph NNW20.9 kmh NNW 26.0 mph41.8 kmh 30.34 in1027.4 mb 0.00 in0.0 mm 0.00 in/hr0.0 mm/hr 0.00 in0.0 mm
06:00 PM 36.4°F2.4°C 23.4°F-4.8°C 59% 11.0 mph NNW17.7 kmh NNW 29.0 mph46.7 kmh 30.34 in1027.4 mb 0.00 in0.0 mm 0.00 in/hr0.0 mm/hr 0.00 in0.0 mm
05:45 PM 36.8°F2.7°C 23.8°F-4.6°C 59% 14.0 mph NNW22.5 kmh NNW 29.0 mph46.7 kmh 30.33 in1027.1 mb 0.00 in0.0 mm 0.00 in/hr0.0 mm/hr 0.00 in0.0 mm
05:30 PM 37.0°F2.8°C 24.4°F-4.2°C 60% 13.0 mph NW20.9 kmh NW 27.0 mph43.5 kmh 30.33 in1027.1 mb 0.00 in0.0 mm 0.00 in/hr0.0 mm/hr 0.00 in0.0 mm
05:15 PM 37.3°F2.9°C 23.4°F-4.8°C 57% 16.0 mph NNW25.7 kmh NNW 30.0 mph48.3 kmh 30.32 in1026.8 mb 0.00 in0.0 mm 0.00 in/hr0.0 mm/hr 0.00 in0.0 mm
05:00 PM 37.4°F3.0°C 24.8°F-4.0°C 60% 14.0 mph NW22.5 kmh NW 25.0 mph40.2 kmh 30.31 in1026.4 mb 0.00 in0.0 mm 0.00 in/hr0.0 mm/hr 0.00 in0.0 mm
04:45 PM 37.7°F3.2°C 24.2°F-4.3°C 58% 12.0 mph NNW19.3 kmh NNW 23.0 mph37.0 kmh 30.30 in1026.1 mb 0.00 in0.0 mm 0.00 in/hr0.0 mm/hr 0.00 in0.0 mm
04:30 PM 37.7°F3.2°C 24.2°F-4.3°C 58% 13.0 mph NNW20.9 kmh NNW 29.0 mph46.7 kmh 30.30 in1026.1 mb 0.00 in0.0 mm 0.00 in/hr0.0 mm/hr 0.00 in0.0 mm
04:15 PM 37.8°F3.2°C 25.1°F-3.8°C 60% 13.0 mph NNW20.9 kmh NNW 28.0 mph45.1 kmh 30.29 in1025.7 mb 0.00 in0.0 mm 0.00 in/hr0.0 mm/hr 0.00 in0.0 mm
04:00 PM 38.0°F3.3°C 24.9°F-3.9°C 59% 18.0 mph NW29.0 kmh NW 33.0 mph53.1 kmh 30.28 in1025.4 mb 0.00 in0.0 mm 0.00 in/hr0.0 mm/hr 0.00 in0.0 mm
03:45 PM 38.3°F3.5°C 24.4°F-4.2°C 57% 16.0 mph NNW25.7 kmh NNW 34.0 mph54.7 kmh 30.27 in1025.1 mb 0.00 in0.0 mm 0.00 in/hr0.0 mm/hr 0.00 in0.0 mm
03:30 PM 38.6°F3.7°C 25.1°F-3.8°C 58% 16.0 mph NNW25.7 kmh NNW 30.0 mph48.3 kmh 30.26 in1024.7 mb 0.00 in0.0 mm 0.00 in/hr0.0 mm/hr 0.00 in0.0 mm
03:15 PM 38.5°F3.6°C 25.8°F-3.4°C 60% 14.0 mph NNW22.5 kmh NNW 29.0 mph46.7 kmh 30.25 in1024.4 mb 0.00 in0.0 mm 0.00 in/hr0.0 mm/hr 0.00 in0.0 mm
03:00 PM 38.0°F3.3°C 26.1°F-3.3°C 62% 15.0 mph NNW24.1 kmh NNW 32.0 mph51.5 kmh 30.25 in1024.4 mb 0.00 in0.0 mm 0.00 in/hr0.0 mm/hr 0.00 in0.0 mm
02:45 PM 38.0°F3.3°C 26.1°F-3.3°C 62% 17.0 mph NNW27.4 kmh NNW 33.0 mph53.1 kmh 30.25 in1024.4 mb 0.00 in0.0 mm 0.00 in/hr0.0 mm/hr 0.00 in0.0 mm
02:30 PM 37.9°F3.3°C 26.0°F-3.3°C 62% 17.0 mph NW27.4 kmh NW 30.0 mph48.3 kmh 30.24 in1024.0 mb 0.00 in0.0 mm 0.00 in/hr0.0 mm/hr 0.00 in0.0 mm
02:15 PM 38.0°F3.3°C 26.5°F-3.1°C 63% 16.0 mph NW25.7 kmh NW 28.0 mph45.1 kmh 30.23 in1023.7 mb 0.00 in0.0 mm 0.00 in/hr0.0 mm/hr 0.00 in0.0 mm
02:00 PM 38.0°F3.3°C 26.9°F-2.8°C 64% 16.0 mph NW25.7 kmh NW 28.0 mph45.1 kmh 30.23 in1023.7 mb 0.00 in0.0 mm 0.00 in/hr0.0 mm/hr 0.00 in0.0 mm
01:45 PM 38.2°F3.4°C 26.7°F-2.9°C 63% 16.0 mph NW25.7 kmh NW 33.0 mph53.1 kmh 30.22 in1023.4 mb 0.00 in0.0 mm 0.00 in/hr0.0 mm/hr 0.00 in0.0 mm
01:30 PM 38.3°F3.5°C 27.6°F-2.4°C 65% 16.0 mph NW25.7 kmh NW 30.0 mph48.3 kmh 30.22 in1023.4 mb 0.00 in0.0 mm 0.00 in/hr0.0 mm/hr 0.00 in0.0 mm
01:15 PM 38.6°F3.7°C 27.1°F-2.7°C 63% 17.0 mph NW27.4 kmh NW 29.0 mph46.7 kmh 30.21 in1023.0 mb 0.00 in0.0 mm 0.00 in/hr0.0 mm/hr 0.00 in0.0 mm
01:00 PM 38.9°F3.8°C 27.8°F-2.3°C 64% 16.0 mph NW25.7 kmh NW 27.0 mph43.5 kmh 30.21 in1023.0 mb 0.00 in0.0 mm 0.00 in/hr0.0 mm/hr 0.00 in0.0 mm
12:45 PM 38.4°F3.6°C 27.7°F-2.4°C 65% 16.0 mph NW25.7 kmh NW 30.0 mph48.3 kmh 30.21 in1023.0 mb 0.00 in0.0 mm 0.00 in/hr0.0 mm/hr 0.00 in0.0 mm
12:30 PM 38.4°F3.6°C 26.9°F-2.8°C 63% 16.0 mph NW25.7 kmh NW 32.0 mph51.5 kmh 30.20 in1022.7 mb 0.00 in0.0 mm 0.00 in/hr0.0 mm/hr 0.00 in0.0 mm
12:15 PM 37.7°F3.2°C 27.0°F-2.8°C 65% 15.0 mph NW24.1 kmh NW 33.0 mph53.1 kmh 30.20 in1022.7 mb 0.00 in0.0 mm 0.00 in/hr0.0 mm/hr 0.00 in0.0 mm
12:00 PM 37.5°F3.1°C 26.8°F-2.9°C 65% 16.0 mph NW25.7 kmh NW 34.0 mph54.7 kmh 30.21 in1023.0 mb 0.00 in0.0 mm 0.00 in/hr0.0 mm/hr 0.00 in0.0 mm
11:45 AM 36.6°F2.6°C 27.0°F-2.8°C 68% 15.0 mph NW24.1 kmh NW 28.0 mph45.1 kmh 30.21 in1023.0 mb 0.00 in0.0 mm 0.00 in/hr0.0 mm/hr 0.00 in0.0 mm
11:30 AM 35.5°F1.9°C 27.7°F-2.4°C 73% 14.0 mph NW22.5 kmh NW 27.0 mph43.5 kmh 30.20 in1022.7 mb 0.00 in0.0 mm 0.00 in/hr0.0 mm/hr 0.00 in0.0 mm
11:15 AM 35.0°F1.7°C 28.2°F-2.1°C 76% 14.0 mph NW22.5 kmh NW 24.0 mph38.6 kmh 30.20 in1022.7 mb 0.00 in0.0 mm 0.00 in/hr0.0 mm/hr 0.00 in0.0 mm
11:00 AM 36.0°F2.2°C 29.5°F-1.4°C 77% 15.0 mph NW24.1 kmh NW 32.0 mph51.5 kmh 30.20 in1022.7 mb 0.00 in0.0 mm 0.00 in/hr0.0 mm/hr 0.00 in0.0 mm
10:45 AM 35.9°F2.2°C 28.7°F-1.8°C 75% 14.0 mph NW22.5 kmh NW 27.0 mph43.5 kmh 30.20 in1022.7 mb 0.00 in0.0 mm 0.00 in/hr0.0 mm/hr 0.00 in0.0 mm
10:30 AM 35.3°F1.8°C 29.4°F-1.4°C 79% 13.0 mph NW20.9 kmh NW 27.0 mph43.5 kmh 30.19 in1022.4 mb 0.00 in0.0 mm 0.00 in/hr0.0 mm/hr 0.00 in0.0 mm
10:15 AM 35.3°F1.8°C 29.4°F-1.4°C 79% 16.0 mph NW25.7 kmh NW 33.0 mph53.1 kmh 30.18 in1022.0 mb 0.00 in0.0 mm 0.00 in/hr0.0 mm/hr 0.00 in0.0 mm
10:00 AM 35.4°F1.9°C 28.9°F-1.7°C 77% 17.0 mph NW27.4 kmh NW 32.0 mph51.5 kmh 30.18 in1022.0 mb 0.00 in0.0 mm 0.00 in/hr0.0 mm/hr 0.00 in0.0 mm
09:45 AM 36.6°F2.6°C 29.4°F-1.4°C 75% 13.0 mph NW20.9 kmh NW 26.0 mph41.8 kmh 30.16 in1021.3 mb 0.00 in0.0 mm 0.00 in/hr0.0 mm/hr 0.00 in0.0 mm
09:30 AM 36.8°F2.7°C 30.3°F-0.9°C 77% 14.0 mph NW22.5 kmh NW 27.0 mph43.5 kmh 30.16 in1021.3 mb 0.00 in0.0 mm 0.00 in/hr0.0 mm/hr 0.00 in0.0 mm
09:15 AM 36.7°F2.6°C 31.1°F-0.5°C 80% 10.0 mph NW16.1 kmh NW 22.0 mph35.4 kmh 30.16 in1021.3 mb 0.00 in0.0 mm 0.00 in/hr0.0 mm/hr 0.00 in0.0 mm
09:00 AM 36.3°F2.4°C 31.0°F-0.6°C 81% 11.0 mph NW17.7 kmh NW 24.0 mph38.6 kmh 30.16 in1021.3 mb 0.00 in0.0 mm 0.00 in/hr0.0 mm/hr 0.00 in0.0 mm
08:45 AM 36.1°F2.3°C 31.7°F-0.2°C 84% 9.0 mph NW14.5 kmh NW 22.0 mph35.4 kmh 30.15 in1021.0 mb 0.00 in0.0 mm 0.00 in/hr0.0 mm/hr 0.00 in0.0 mm
08:30 AM 35.4°F1.9°C 31.3°F-0.4°C 85% 10.0 mph NW16.1 kmh NW 23.0 mph37.0 kmh 30.15 in1021.0 mb 0.00 in0.0 mm 0.00 in/hr0.0 mm/hr 0.00 in0.0 mm
08:15 AM 34.6°F1.4°C 31.4°F-0.3°C 88% 10.0 mph NW16.1 kmh NW 20.0 mph32.2 kmh 30.15 in1021.0 mb 0.00 in0.0 mm 0.00 in/hr0.0 mm/hr 0.00 in0.0 mm
08:00 AM 34.0°F1.1°C 31.4°F-0.3°C 90% 8.0 mph NW12.9 kmh NW 19.0 mph30.6 kmh 30.14 in1020.7 mb 0.00 in0.0 mm 0.00 in/hr0.0 mm/hr 0.00 in0.0 mm
07:45 AM 33.9°F1.1°C 31.6°F-0.2°C 91% 6.0 mph NW9.7 kmh NW 18.0 mph29.0 kmh 30.14 in1020.7 mb 0.00 in0.0 mm 0.00 in/hr0.0 mm/hr 0.00 in0.0 mm
07:30 AM 33.6°F0.9°C 31.3°F-0.4°C 91% 9.0 mph NW14.5 kmh NW 19.0 mph30.6 kmh 30.13 in1020.3 mb 0.00 in0.0 mm 0.00 in/hr0.0 mm/hr 0.00 in0.0 mm
07:15 AM 33.8°F1.0°C 30.9°F-0.6°C 89% 10.0 mph NW16.1 kmh NW 19.0 mph30.6 kmh 30.13 in1020.3 mb 0.00 in0.0 mm 0.00 in/hr0.0 mm/hr 0.00 in0.0 mm
07:00 AM 34.7°F1.5°C 30.7°F-0.7°C 85% 7.0 mph NW11.3 kmh NW 17.0 mph27.4 kmh 30.12 in1020.0 mb 0.00 in0.0 mm 0.00 in/hr0.0 mm/hr 0.00 in0.0 mm
06:45 AM 35.2°F1.8°C 29.6°F-1.3°C 80% 14.0 mph NW22.5 kmh NW 28.0 mph45.1 kmh 30.12 in1020.0 mb 0.00 in0.0 mm 0.00 in/hr0.0 mm/hr 0.00 in0.0 mm
06:30 AM 34.9°F1.6°C 29.4°F-1.4°C 80% 12.0 mph NW19.3 kmh NW 23.0 mph37.0 kmh 30.11 in1019.6 mb 0.00 in0.0 mm 0.00 in/hr0.0 mm/hr 0.00 in0.0 mm
06:15 AM 35.9°F2.2°C 28.7°F-1.8°C 75% 10.0 mph NW16.1 kmh NW 21.0 mph33.8 kmh 30.10 in1019.3 mb 0.00 in0.0 mm 0.00 in/hr0.0 mm/hr 0.00 in0.0 mm
06:00 AM 36.8°F2.7°C 29.3°F-1.5°C 74% 11.0 mph NW17.7 kmh NW 22.0 mph35.4 kmh 30.10 in1019.3 mb 0.00 in0.0 mm 0.00 in/hr0.0 mm/hr 0.00 in0.0 mm
05:45 AM 37.3°F2.9°C 30.1°F-1.1°C 75% 11.0 mph NW17.7 kmh NW 22.0 mph35.4 kmh 30.10 in1019.3 mb 0.00 in0.0 mm 0.00 in/hr0.0 mm/hr 0.00 in0.0 mm
05:30 AM 37.7°F3.2°C 30.8°F-0.7°C 76% 12.0 mph NW19.3 kmh NW 24.0 mph38.6 kmh 30.09 in1019.0 mb 0.00 in0.0 mm 0.00 in/hr0.0 mm/hr 0.00 in0.0 mm
05:15 AM 38.5°F3.6°C 31.6°F-0.2°C 76% 10.0 mph NW16.1 kmh NW 24.0 mph38.6 kmh 30.09 in1019.0 mb 0.00 in0.0 mm 0.00 in/hr0.0 mm/hr 0.00 in0.0 mm
05:00 AM 39.4°F4.1°C 32.5°F0.3°C 76% 11.0 mph NW17.7 kmh NW 24.0 mph38.6 kmh 30.08 in1018.6 mb 0.00 in0.0 mm 0.00 in/hr0.0 mm/hr 0.00 in0.0 mm
04:45 AM 40.3°F4.6°C 33.0°F0.6°C 75% 10.0 mph NW16.1 kmh NW 20.0 mph32.2 kmh 30.07 in1018.3 mb 0.00 in0.0 mm 0.00 in/hr0.0 mm/hr 0.00 in0.0 mm
04:30 AM 40.4°F4.7°C 32.4°F0.2°C 73% 12.0 mph NW19.3 kmh NW 27.0 mph43.5 kmh 30.07 in1018.3 mb 0.00 in0.0 mm 0.00 in/hr0.0 mm/hr 0.00 in0.0 mm
04:15 AM 40.7°F4.8°C 32.7°F0.4°C 73% 10.0 mph NW16.1 kmh NW 24.0 mph38.6 kmh 30.06 in1017.9 mb 0.00 in0.0 mm 0.00 in/hr0.0 mm/hr 0.00 in0.0 mm
04:00 AM 40.9°F4.9°C 32.9°F0.5°C 73% 12.0 mph NW19.3 kmh NW 22.0 mph35.4 kmh 30.06 in1017.9 mb 0.00 in0.0 mm 0.00 in/hr0.0 mm/hr 0.00 in0.0 mm
03:45 AM 41.1°F5.1°C 34.4°F1.3°C 77% 9.0 mph NW14.5 kmh NW 17.0 mph27.4 kmh 30.06 in1017.9 mb 0.00 in0.0 mm 0.00 in/hr0.0 mm/hr 0.00 in0.0 mm
03:30 AM 41.3°F5.2°C 35.9°F2.2°C 81% 7.0 mph NW11.3 kmh NW 19.0 mph30.6 kmh 30.06 in1017.9 mb 0.00 in0.0 mm 0.00 in/hr0.0 mm/hr 0.00 in0.0 mm
03:15 AM 41.4°F5.2°C 36.6°F2.6°C 83% 5.0 mph NW8.0 kmh NW 14.0 mph22.5 kmh 30.06 in1017.9 mb 0.00 in0.0 mm 0.00 in/hr0.0 mm/hr 0.00 in0.0 mm
03:00 AM 41.6°F5.3°C 37.4°F3.0°C 85% 5.0 mph NW8.0 kmh NW 13.0 mph20.9 kmh 30.05 in1017.6 mb 0.00 in0.0 mm 0.00 in/hr0.0 mm/hr 0.00 in0.0 mm
02:45 AM 42.0°F5.6°C 37.2°F2.9°C 83% 7.0 mph NW11.3 kmh NW 13.0 mph20.9 kmh 30.06 in1017.9 mb 0.00 in0.0 mm 0.00 in/hr0.0 mm/hr 0.00 in0.0 mm
02:30 AM 42.1°F5.6°C 36.1°F2.3°C 79% 9.0 mph NW14.5 kmh NW 18.0 mph29.0 kmh 30.06 in1017.9 mb 0.00 in0.0 mm 0.00 in/hr0.0 mm/hr 0.00 in0.0 mm
02:15 AM 43.4°F6.3°C 37.3°F2.9°C 79% 11.0 mph NW17.7 kmh NW 22.0 mph35.4 kmh 30.06 in1017.9 mb 0.00 in0.0 mm 0.00 in/hr0.0 mm/hr 0.00 in0.0 mm
02:00 AM 44.9°F7.2°C 39.1°F3.9°C 80% 5.0 mph NW8.0 kmh NW 14.0 mph22.5 kmh 30.05 in1017.6 mb 0.00 in0.0 mm 0.00 in/hr0.0 mm/hr 0.00 in0.0 mm
01:45 AM 45.2°F7.3°C 39.4°F4.1°C 80% 3.0 mph WNW4.8 kmh WNW 11.0 mph17.7 kmh 30.05 in1017.6 mb 0.00 in0.0 mm 0.00 in/hr0.0 mm/hr 0.00 in0.0 mm
01:30 AM 45.4°F7.4°C 39.3°F4.1°C 79% 6.0 mph WNW9.7 kmh WNW 14.0 mph22.5 kmh 30.05 in1017.6 mb 0.00 in0.0 mm 0.00 in/hr0.0 mm/hr 0.00 in0.0 mm
01:15 AM 45.3°F7.4°C 38.8°F3.8°C 78% 2.0 mph WNW3.2 kmh WNW 12.0 mph19.3 kmh 30.05 in1017.6 mb 0.00 in0.0 mm 0.00 in/hr0.0 mm/hr 0.00 in0.0 mm
01:00 AM 45.1°F7.3°C 39.0°F3.9°C 79% 2.0 mph W3.2 kmh W 9.0 mph14.5 kmh 30.05 in1017.6 mb 0.00 in0.0 mm 0.00 in/hr0.0 mm/hr 0.00 in0.0 mm
12:45 AM 44.7°F7.1°C 38.6°F3.7°C 79% 3.0 mph W4.8 kmh W 7.0 mph11.3 kmh 30.05 in1017.6 mb 0.00 in0.0 mm 0.00 in/hr0.0 mm/hr 0.00 in0.0 mm
12:30 AM 44.3°F6.8°C 38.5°F3.6°C 80% Calm Calm 5.0 mph8.0 kmh 30.06 in1017.9 mb 0.00 in0.0 mm 0.00 in/hr0.0 mm/hr 0.00 in0.0 mm
12:15 AM 44.0°F6.7°C 38.2°F3.4°C 80% 1.0 mph W1.6 kmh W 7.0 mph11.3 kmh 30.06 in1017.9 mb 0.00 in0.0 mm 0.00 in/hr0.0 mm/hr 0.00 in0.0 mm
12:00 AM 43.6°F6.4°C 38.2°F3.4°C 81% Calm Calm 3.0 mph4.8 kmh 30.06 in1017.9 mb 0.00 in0.0 mm 0.00 in/hr0.0 mm/hr 0.00 in0.0 mm